Apricity — V7EO9 — position and weather

sailwx.info

Track history (hours):
 
Tides and Currents Weather Stations Pressure Air Temp Water Temp Dewpoint Dewpoint Depression Visibility Wind Speed Wind Dir Waves Ship Positions

Apricity

Last reported at 2018-Feb-23 15:59 UTC. Time now 2018-Feb-23 16:17 UTC.
Position N 26°11' W 080°06'.

Length 47 m; draft 1.7 m.

Type: Pleasure craft. MMSI: 538070988.

Date/timePositionNaut miles runAvg speedWind from/ knotsBaromVisibWave heightAir tempDewpointWater temp
2018-Feb-23 15:59N 26°11' W 080°06'3 6.1
2018-Feb-23 15:30N 26°08' W 080°07'1 2.2
2018-Feb-23 14:56N 26°07' W 080°07'0 0.0
2018-Feb-23 14:26N 26°07' W 080°07'0 0.0
2018-Feb-23 13:56N 26°07' W 080°07'0 0.0
2018-Feb-23 13:26N 26°07' W 080°07'0 0.0
2018-Feb-23 12:56N 26°07' W 080°07'0 0.0
2018-Feb-23 12:26N 26°07' W 080°07'0 0.0
2018-Feb-23 11:56N 26°07' W 080°07'0 0.0
2018-Feb-23 11:26N 26°07' W 080°07'0 0.0
2018-Feb-23 10:56N 26°07' W 080°07'0 0.0
2018-Feb-23 10:26N 26°07' W 080°07'0 0.0
2018-Feb-23 09:56N 26°07' W 080°07'0 0.0
2018-Feb-23 09:26N 26°07' W 080°07'0 0.0
2018-Feb-23 08:56N 26°07' W 080°07'0 0.0
2018-Feb-23 08:26N 26°07' W 080°07'0 0.0
2018-Feb-23 07:56N 26°07' W 080°07'0 0.0
2018-Feb-23 07:26N 26°07' W 080°07'0 0.0
2018-Feb-23 06:56N 26°07' W 080°07'0 0.0
2018-Feb-23 06:26N 26°07' W 080°07'0 0.0
2018-Feb-23 05:56N 26°07' W 080°07'0 0.0
2018-Feb-23 05:26N 26°07' W 080°07'0 0.0
2018-Feb-23 05:01N 26°07' W 080°07'0 0.0
2018-Feb-23 04:31N 26°07' W 080°07'0 0.0
2018-Feb-23 04:01N 26°07' W 080°07'0 0.0
2018-Feb-23 03:31N 26°07' W 080°07'0 0.0
2018-Feb-23 03:00N 26°07' W 080°07'0 0.0
2018-Feb-23 02:30N 26°07' W 080°07'0 0.0
2018-Feb-23 02:00N 26°07' W 080°07'0 0.0
2018-Feb-23 01:30N 26°07' W 080°07'0 0.0
2018-Feb-23 01:00N 26°07' W 080°07'0 0.0
2018-Feb-23 00:30N 26°07' W 080°07'2 3.5
2018-Feb-23 00:00N 26°09' W 080°06'3 6.3
2018-Feb-22 23:30N 26°12' W 080°06'3 5.2
2018-Feb-22 23:00N 26°14' W 080°06'2 4.4
2018-Feb-22 22:30N 26°16' W 080°05'3 5.5
2018-Feb-22 21:59N 26°19' W 080°05'2 4.4
2018-Feb-22 21:30N 26°21' W 080°05'2 3.8
2018-Feb-22 21:00N 26°23' W 080°04'4 6.7
2018-Feb-22 20:24N 26°27' W 080°04'  
2018-Feb-18 18:35N 26°50' W 080°01'332.9
2018-Feb-18 18:30N 26°53' W 080°02'12 0.2
2018-Feb-16 14:37N 27°04' W 080°05'435.8
2018-Feb-16 14:30N 27°00' W 080°04'  
Track history (hours):
 
Tides and Currents Weather Stations Pressure Air Temp Water Temp Dewpoint Dewpoint Depression Visibility Wind Speed Wind Dir Waves Ship Positions

Apricity

Last reported at 2018-Feb-23 15:59 UTC. Time now 2018-Feb-23 16:17 UTC.
Position N 26°11' W 080°06'.

Length 47 m; draft 1.7 m.

Type: Pleasure craft. MMSI: 538070988.

Date/timePositionNaut miles runAvg speedWind from/ knotsBaromVisibWave heightAir tempDewpointWater temp
2018-Feb-23 15:59N 26°11' W 080°06'3 6.1
2018-Feb-23 15:30N 26°08' W 080°07'1 2.2
2018-Feb-23 14:56N 26°07' W 080°07'0 0.0
2018-Feb-23 14:26N 26°07' W 080°07'0 0.0
2018-Feb-23 13:56N 26°07' W 080°07'0 0.0
2018-Feb-23 13:26N 26°07' W 080°07'0 0.0
2018-Feb-23 12:56N 26°07' W 080°07'0 0.0
2018-Feb-23 12:26N 26°07' W 080°07'0 0.0
2018-Feb-23 11:56N 26°07' W 080°07'0 0.0
2018-Feb-23 11:26N 26°07' W 080°07'0 0.0
2018-Feb-23 10:56N 26°07' W 080°07'0 0.0
2018-Feb-23 10:26N 26°07' W 080°07'0 0.0
2018-Feb-23 09:56N 26°07' W 080°07'0 0.0
2018-Feb-23 09:26N 26°07' W 080°07'0 0.0
2018-Feb-23 08:56N 26°07' W 080°07'0 0.0
2018-Feb-23 08:26N 26°07' W 080°07'0 0.0
2018-Feb-23 07:56N 26°07' W 080°07'0 0.0
2018-Feb-23 07:26N 26°07' W 080°07'0 0.0
2018-Feb-23 06:56N 26°07' W 080°07'0 0.0
2018-Feb-23 06:26N 26°07' W 080°07'0 0.0
2018-Feb-23 05:56N 26°07' W 080°07'0 0.0
2018-Feb-23 05:26N 26°07' W 080°07'0 0.0
2018-Feb-23 05:01N 26°07' W 080°07'0 0.0
2018-Feb-23 04:31N 26°07' W 080°07'0 0.0
2018-Feb-23 04:01N 26°07' W 080°07'0 0.0
2018-Feb-23 03:31N 26°07' W 080°07'0 0.0
2018-Feb-23 03:00N 26°07' W 080°07'0 0.0
2018-Feb-23 02:30N 26°07' W 080°07'0 0.0
2018-Feb-23 02:00N 26°07' W 080°07'0 0.0
2018-Feb-23 01:30N 26°07' W 080°07'0 0.0
2018-Feb-23 01:00N 26°07' W 080°07'0 0.0
2018-Feb-23 00:30N 26°07' W 080°07'2 3.5
2018-Feb-23 00:00N 26°09' W 080°06'3 6.3
2018-Feb-22 23:30N 26°12' W 080°06'3 5.2
2018-Feb-22 23:00N 26°14' W 080°06'2 4.4
2018-Feb-22 22:30N 26°16' W 080°05'3 5.5
2018-Feb-22 21:59N 26°19' W 080°05'2 4.4
2018-Feb-22 21:30N 26°21' W 080°05'2 3.8
2018-Feb-22 21:00N 26°23' W 080°04'4 6.7
2018-Feb-22 20:24N 26°27' W 080°04'  
2018-Feb-18 18:35N 26°50' W 080°01'332.9
2018-Feb-18 18:30N 26°53' W 080°02'12 0.2
2018-Feb-16 14:37N 27°04' W 080°05'435.8
2018-Feb-16 14:30N 27°00' W 080°04'  

Dump ship's entire track history